»·PEaware :: WAT505 KLAS-KSAN

WAT505 :: KLAS-KSAN

FLIGHT INFORMATION

Flight Status: Arrived
Operator:
Walker Air Transport
More flights by this operator :: More flights under this callsign
Pilot: Adam R. (27193)
Aircraft: BOEING 737-800
(B738)
More flights by this aircraft type
Origin: KLAS McCarran Intl
United States
Destination: KSAN San Diego Intl-Lindbergh
United States
More flights between these airports :: More routes between these airports
Route: BOACH8 LVELL LUCKI1
File this flight plan on PilotEdge
Remarks: RMK / SIMBRIEF
Altitude:
(Current/Filed)
30,000ft
Speed:
(Current/Filed)
409kts
Departed: 21-Feb-21 05:26 PM
Arrived: 21-Feb-21 06:10 PM
Distance/Time
Traveled:
225nm/0:44
Distance/Time
To Go:
Arrived

Flight Plot

Page will automatically refresh every two minutes.

Flight plan parsing failed; only flown route is shown


Map Options




Map Legend


Flown Route
Filed Route
Departure Airport
Arrival Airport
Navaid (VOR, NDB)
Fix

Horizontal Profiles

Position Reports

Time Latitude Longitude Heading Altitude Ground
Speed
21-Feb-21 16:43 36.079904 -115.140474 62 2078ft 0kts
21-Feb-21 16:44 36.079904 -115.140474 62 2078ft 0kts
21-Feb-21 16:45 36.079904 -115.140474 62 2078ft 0kts
21-Feb-21 16:46 36.079904 -115.140474 62 2078ft 0kts
21-Feb-21 16:47 36.079904 -115.140474 62 2078ft 0kts
21-Feb-21 16:48 36.079904 -115.140474 62 2078ft 0kts
21-Feb-21 16:49 36.079904 -115.140474 62 2078ft 0kts
21-Feb-21 16:50 36.079904 -115.140474 62 2078ft 0kts
21-Feb-21 16:51 36.079904 -115.140474 62 2078ft 0kts
21-Feb-21 16:52 36.079904 -115.140474 62 2078ft 0kts
21-Feb-21 16:53 36.079904 -115.140474 62 2078ft 0kts
21-Feb-21 16:54 36.079904 -115.140474 62 2078ft 0kts
21-Feb-21 16:55 36.079904 -115.140474 62 2078ft 0kts
21-Feb-21 16:56 36.079904 -115.140474 62 2078ft 0kts
21-Feb-21 16:57 36.079904 -115.140474 62 2078ft 0kts
21-Feb-21 16:58 36.079904 -115.140474 62 2078ft 0kts
21-Feb-21 16:59 36.079904 -115.140474 62 2078ft 0kts
21-Feb-21 17:00 36.079904 -115.140474 62 2078ft 0kts
21-Feb-21 17:01 36.079904 -115.140474 62 2078ft 0kts
21-Feb-21 17:02 36.079904 -115.140474 62 2078ft 0kts
21-Feb-21 17:03 36.079904 -115.140474 62 2078ft 0kts
21-Feb-21 17:04 36.079904 -115.140474 62 2078ft 0kts
21-Feb-21 17:05 36.079904 -115.140474 62 2078ft 0kts
21-Feb-21 17:06 36.079904 -115.140474 62 2078ft 0kts
21-Feb-21 17:07 36.079904 -115.140474 62 2078ft 0kts
21-Feb-21 17:08 36.079904 -115.140474 62 2078ft 0kts
21-Feb-21 17:09 36.079904 -115.140474 62 2078ft 0kts
21-Feb-21 17:10 36.079904 -115.140474 62 2078ft 0kts
21-Feb-21 17:11 36.079904 -115.140474 62 2078ft 0kts
21-Feb-21 17:12 36.079887 -115.140514 62 2078ft 2kts
21-Feb-21 17:13 36.079759 -115.141200 120 2081ft 2kts
21-Feb-21 17:14 36.079862 -115.141343 138 2082ft 0kts
21-Feb-21 17:15 36.079862 -115.141343 138 2082ft 0kts
21-Feb-21 17:16 36.079862 -115.141343 138 2082ft 0kts
21-Feb-21 17:17 36.079862 -115.141343 138 2082ft 0kts
21-Feb-21 17:18 36.079862 -115.141343 138 2082ft 0kts
21-Feb-21 17:19 36.078617 -115.140193 135 2080ft 16kts
21-Feb-21 17:20 36.078271 -115.132747 89 2057ft 24kts
21-Feb-21 17:21 36.078276 -115.124308 90 2041ft 24kts
21-Feb-21 17:22 36.077594 -115.121669 129 2038ft 0kts
21-Feb-21 17:23 36.077453 -115.121492 139 2038ft 6kts
21-Feb-21 17:24 36.076444 -115.121834 264 2040ft 0kts
21-Feb-21 17:25 36.076614 -115.166888 270 2960ft 198kts
21-Feb-21 17:27 36.076039 -115.229021 260 5278ft 182kts
21-Feb-21 17:28 36.033457 -115.271983 200 6961ft 243kts
21-Feb-21 17:29 35.961305 -115.302474 188 7005ft 283kts
21-Feb-21 17:30 35.882310 -115.312190 185 8645ft 290kts
21-Feb-21 17:31 35.797175 -115.308381 175 10951ft 343kts
21-Feb-21 17:32 35.699200 -115.297064 175 13857ft 364kts
21-Feb-21 17:33 35.595923 -115.297745 183 16584ft 381kts
21-Feb-21 17:34 35.488120 -115.302187 182 19028ft 398kts
21-Feb-21 17:35 35.375521 -115.306655 181 21191ft 415kts
21-Feb-21 17:36 35.258054 -115.311279 181 23164ft 431kts
21-Feb-21 17:37 35.136703 -115.316050 180 24984ft 445kts
21-Feb-21 17:38 35.011155 -115.320961 179 26642ft 459kts
21-Feb-21 17:39 34.883030 -115.325964 179 28147ft 472kts
21-Feb-21 17:40 34.752271 -115.352665 194 29523ft 486kts
21-Feb-21 17:41 34.622124 -115.402694 197 30375ft 500kts
21-Feb-21 17:42 34.491542 -115.458136 198 30375ft 496kts
21-Feb-21 17:43 34.362020 -115.515755 204 30373ft 498kts
21-Feb-21 17:44 34.240383 -115.593992 203 30368ft 496kts
21-Feb-21 17:45 34.112940 -115.658837 200 30349ft 497kts
21-Feb-21 17:46 33.989487 -115.718582 200 29416ft 457kts
21-Feb-21 17:47 33.876577 -115.772849 201 28419ft 427kts
21-Feb-21 17:48 33.766858 -115.826839 200 27422ft 423kts
21-Feb-21 17:49 33.658711 -115.877555 200 26419ft 412kts
21-Feb-21 17:49 33.572631 -115.917759 201 25501ft 390kts
21-Feb-21 17:50 33.490441 -115.997968 232 23799ft 381kts
21-Feb-21 17:52 33.417516 -116.114353 236 21857ft 370kts
21-Feb-21 17:53 33.358690 -116.213762 233 20174ft 363kts
21-Feb-21 17:53 33.293530 -116.275407 208 18755ft 360kts
21-Feb-21 17:54 33.205061 -116.327682 207 17091ft 351kts
21-Feb-21 17:56 33.104443 -116.386550 207 15157ft 341kts
21-Feb-21 17:56 33.034553 -116.427345 207 13780ft 334kts
21-Feb-21 17:57 32.960553 -116.489427 222 12162ft 322kts
21-Feb-21 17:58 32.893201 -116.557609 221 10602ft 314kts
21-Feb-21 17:59 32.829066 -116.622194 221 9540ft 291kts
21-Feb-21 18:00 32.771419 -116.685563 235 8195ft 282kts
21-Feb-21 18:01 32.732914 -116.764365 241 6881ft 263kts
21-Feb-21 18:02 32.701379 -116.836674 251 5577ft 235kts
21-Feb-21 18:03 32.680507 -116.905790 252 4657ft 216kts
21-Feb-21 18:04 32.679778 -116.970379 289 3810ft 186kts
21-Feb-21 18:05 32.694361 -117.028862 288 2908ft 185kts
21-Feb-21 18:06 32.708129 -117.085194 287 1784ft 165kts
21-Feb-21 18:07 32.719521 -117.131930 286 881ft 142kts
21-Feb-21 18:08 32.730452 -117.176841 287 86ft 138kts
21-Feb-21 18:09 32.738229 -117.209835 293 26ft 27kts

Navigation Log

Ident Type
Flight plan parsing failed, navigation log unavailable